Lubbock, TX (79401)

6:41 PM CST on February 07, 2016 (GMT -0600)
APRSWXNET | | Change Station
CLOSE
Current Station
Personal Weather Station
Location: Lubbock, TX
Elevation: 3221 ft
Nearby Weather Stations

Elev 3221 ft 33.58 °N, 101.88 °W | Updated 25 minutes ago

Partly Cloudy
Partly Cloudy
57 °F
Feels Like 57 °F
N
9
Wind Variable Wind from ENE
Gusts 18.0 mph

Today
High -- | Low -- °F
--% Chance of Precip.
Yesterday
High -- | Low -- °F
Precip. -- in
Pressure 30.18 in
Visibility 10.0 miles
Clouds Few 23000 ft
Scattered Clouds 26000 ft
Scattered Clouds 30000 ft
Dew Point 23 °F
Humidity 27%
Rainfall in
Snow Depth Not available.
7:39 AM 6:24 PM
Waning Crescent, 0% visible
METAR KLBB 072353Z 04012KT 10SM FEW230 SCT260 SCT300 14/M07 A3020 RMK AO2 SLP218 T01391067 10189 20139 53012
Pressure 30.18 in
Visibility 10.0 miles
Clouds Few 23000 ft
Scattered Clouds 26000 ft
Scattered Clouds 30000 ft
Dew Point 23 °F
Humidity 27%
Rainfall in
Snow Depth Not available.
7:39 AM 6:24 PM
Waning Crescent, 0% visible
METAR KLBB 072353Z 04012KT 10SM FEW230 SCT260 SCT300 14/M07 A3020 RMK AO2 SLP218 T01391067 10189 20139 53012

10-Day Weather Forecast

Almanac

Astronomy

Feb. 07, 2016 Rise Set
Actual Time
Civil Twilight
Nautical Twilight
Astronomical Twilight
Moon
Length of Visible Light
Length of Day
Tomorrow will be .
, % of the Moon is Illuminated

Today's Extremes

State Highs State Lows

Community

WunderPhotos

Upload Photos

1,891,339 photos uploaded!

WunderBlog® & News

Nearby

Air Quality

  Air Quality AQ Index Pollutant
Not available.

Snow Depth

Station Depth Elevation

Earthquake Activity

City Distance Mag. Time & Date
Minimum magnitude displayed is 2.5.

Coastal Water Temperatures

Place Temperature

Stations

Nearby Weather Stations

Station Location Temp. Windchill Dew Point Humidity Wind Precip. Elev Updated Type
                   

Watches & Warnings

There are currently no watches in effect.